Time;durP1;ratioP1;P1;durP2;ratioP2;P2;SDS_P1;SDS_P2;PMS_P1;PMS_P2;Temp;Humidity;BMP_temperature;BMP_pressure;BME280_temperature;BME280_humidity;BME280_pressure;Samples;Min_cycle;Max_cycle;Signal;HPM_P1;HPM_P2
2022/05/24 00:00:23;;;;;;;1.27;0.25;;;17.80;99.90;;;;;;5048882;28;20036;-74
2022/05/24 00:02:51;;;;;;;1.33;0.30;;;17.80;99.90;;;;;;5051756;28;20025;-73
2022/05/24 00:05:19;;;;;;;1.08;0.20;;;17.90;99.90;;;;;;5045911;28;20028;-71
2022/05/24 00:07:47;;;;;;;1.67;0.30;;;17.90;99.90;;;;;;5039944;28;20024;-72
2022/05/24 00:10:19;;;;;;;1.20;0.17;;;17.90;99.90;;;;;;5038252;28;20376;-72
2022/05/24 00:12:46;;;;;;;0.82;0.20;;;18.00;99.90;;;;;;5044176;28;20025;-73
2022/05/24 00:15:20;;;;;;;0.95;0.20;;;18.20;99.90;;;;;;5048459;28;20119;-72
2022/05/24 00:17:51;;;;;;;2.58;0.20;;;18.30;99.90;;;;;;5037959;28;20029;-72
2022/05/24 00:20:20;;;;;;;3.40;0.20;;;18.50;99.90;;;;;;5038036;28;20033;-72
2022/05/24 00:22:47;;;;;;;1.10;0.30;;;18.80;99.90;;;;;;5048469;28;20033;-72
2022/05/24 00:25:14;;;;;;;1.17;0.30;;;19.40;99.90;;;;;;5052602;28;20032;-73
2022/05/24 00:27:42;;;;;;;1.35;0.40;;;20.30;99.90;;;;;;5041851;28;20048;-72
2022/05/24 00:30:10;;;;;;;0.45;0.30;;;21.60;99.90;;;;;;5040176;28;20021;-72
2022/05/24 00:32:37;;;;;;;0.95;0.20;;;22.70;99.90;;;;;;5048732;28;20112;-72
2022/05/24 00:35:05;;;;;;;0.57;0.10;;;23.60;99.90;;;;;;5048310;28;20045;-72
2022/05/24 00:37:34;;;;;;;1.38;0.10;;;24.50;99.90;;;;;;5051159;28;20105;-72
2022/05/24 00:40:01;;;;;;;2.15;0.32;;;25.30;99.90;;;;;;5049935;28;20033;-73
2022/05/24 00:42:32;;;;;;;1.58;0.22;;;26.00;97.80;;;;;;5033342;28;20060;-72
2022/05/24 00:45:07;;;;;;;1.10;0.10;;;26.30;96.70;;;;;;5047834;28;20108;-75
2022/05/24 00:47:42;;;;;;;5.13;1.40;;;26.60;96.60;;;;;;5048733;28;20037;-72
2022/05/24 00:50:25;;;;;;;2.03;0.40;;;26.60;96.20;;;;;;5037805;28;20525;-72
2022/05/24 00:52:58;;;;;;;0.50;0.22;;;27.00;95.90;;;;;;5035919;28;20032;-72
2022/05/24 00:55:27;;;;;;;0.25;0.10;;;27.30;95.00;;;;;;5045661;28;20395;-72
2022/05/24 00:58:10;;;;;;;0.68;0.25;;;27.40;95.20;;;;;;5042918;28;20033;-73
2022/05/24 01:00:37;;;;;;;1.55;0.32;;;27.50;94.80;;;;;;5047201;28;20029;-72
2022/05/24 01:03:05;;;;;;;1.88;0.40;;;27.70;94.90;;;;;;5031975;28;20026;-73
2022/05/24 01:05:32;;;;;;;1.17;0.20;;;27.50;94.90;;;;;;5043969;28;20037;-71
2022/05/24 01:08:00;;;;;;;1.20;0.40;;;27.70;94.40;;;;;;5051930;28;20025;-71
2022/05/24 01:10:40;;;;;;;0.50;0.20;;;27.80;94.10;;;;;;5038891;28;20116;-71
2022/05/24 01:13:07;;;;;;;2.22;0.82;;;27.90;94.10;;;;;;5039295;28;20033;-71
2022/05/24 01:15:36;;;;;;;1.58;0.32;;;28.10;92.50;;;;;;5040918;28;20098;-71
2022/05/24 01:18:05;;;;;;;1.45;0.20;;;27.80;93.60;;;;;;5048653;28;20032;-72
2022/05/24 01:20:33;;;;;;;1.23;0.20;;;28.00;93.50;;;;;;5048732;28;20059;-72
2022/05/24 01:23:12;;;;;;;1.52;0.50;;;28.30;93.50;;;;;;5041807;28;20030;-73
2022/05/24 01:25:55;;;;;;;0.82;0.20;;;28.70;92.10;;;;;;5030999;28;20033;-73
2022/05/24 01:28:39;;;;;;;2.38;0.20;;;28.00;92.60;;;;;;5049992;28;20065;-72
2022/05/24 01:31:07;;;;;;;2.25;0.20;;;27.80;93.20;;;;;;5032710;28;20807;-72
2022/05/24 01:36:23;;;;;;;4.93;0.28;;;27.00;93.40;;;;;;5033918;28;20086;-74
2022/05/24 01:38:53;;;;;;;1.58;0.30;;;26.20;93.80;;;;;;5042039;28;20399;-73
2022/05/24 01:41:36;;;;;;;1.38;0.30;;;25.40;94.40;;;;;;5035515;28;20547;-73
2022/05/24 01:44:04;;;;;;;2.22;0.30;;;24.70;95.30;;;;;;5029503;28;20033;-73
2022/05/24 01:46:46;;;;;;;0.93;0.40;;;24.10;95.80;;;;;;5030708;28;20399;-72
2022/05/24 01:49:31;;;;;;;4.28;0.52;;;23.90;96.50;;;;;;5038326;28;20045;-73
2022/05/24 01:52:26;;;;;;;1.02;0.30;;;25.10;95.50;;;;;;5029908;28;20026;-73
2022/05/24 01:55:00;;;;;;;0.90;0.32;;;25.80;94.20;;;;;;5029365;28;20075;-72
2022/05/24 01:57:33;;;;;;;0.30;0.20;;;26.60;93.80;;;;;;5031958;28;20029;-74
2022/05/24 02:00:04;;;;;;;1.00;0.40;;;26.30;93.90;;;;;;5048559;28;20067;-73
2022/05/24 02:02:31;;;;;;;0.98;0.20;;;25.60;94.10;;;;;;5050034;28;20041;-74
2022/05/24 02:04:59;;;;;;;1.70;0.43;;;24.90;94.50;;;;;;5038367;28;20053;-74
2022/05/24 02:07:27;;;;;;;0.80;0.30;;;24.10;95.20;;;;;;5049405;28;20032;-75
2022/05/24 02:09:57;;;;;;;2.15;0.30;;;24.50;95.30;;;;;;5049714;28;20052;-75
2022/05/24 02:12:40;;;;;;;1.17;0.28;;;25.20;94.90;;;;;;5050417;28;20025;-75
2022/05/24 02:15:15;;;;;;;1.92;0.30;;;25.70;94.10;;;;;;5045444;28;20128;-73
2022/05/24 02:17:55;;;;;;;0.55;0.15;;;25.60;93.30;;;;;;5034812;28;20111;-80
2022/05/24 02:20:29;;;;;;;0.90;0.15;;;24.60;94.80;;;;;;5041026;28;20041;-75
2022/05/24 02:22:57;;;;;;;1.53;0.93;;;25.10;94.20;;;;;;5049815;28;20618;-76
2022/05/24 02:25:45;;;;;;;1.67;0.30;;;25.80;93.70;;;;;;5048892;28;20036;-78
2022/05/24 02:28:16;;;;;;;0.60;0.22;;;24.90;93.60;;;;;;5049567;28;20021;-83
2022/05/24 02:30:50;;;;;;;0.55;0.17;;;24.70;93.60;;;;;;5046880;28;20032;-77
2022/05/24 02:33:20;;;;;;;0.47;0.13;;;24.90;93.70;;;;;;5041607;28;20356;-77
2022/05/24 02:35:48;;;;;;;0.93;0.38;;;25.10;93.60;;;;;;5044265;28;20081;-78
2022/05/24 02:38:16;;;;;;;1.00;0.30;;;25.20;93.40;;;;;;5042311;28;20025;-77
2022/05/24 02:43:29;;;;;;;0.90;0.20;;;24.70;93.90;;;;;;5050607;28;20402;-76
2022/05/24 02:45:57;;;;;;;0.90;0.10;;;23.60;94.90;;;;;;5038324;28;20036;-75
2022/05/24 02:48:24;;;;;;;0.70;0.15;;;22.80;96.00;;;;;;5028171;28;20126;-73
2022/05/24 02:50:52;;;;;;;1.13;0.63;;;22.10;96.80;;;;;;5043315;28;20118;-75
2022/05/24 02:53:19;;;;;;;0.85;0.10;;;21.90;97.00;;;;;;5039976;28;20037;-74
2022/05/24 02:55:46;;;;;;;1.10;0.35;;;21.70;97.30;;;;;;5046955;28;20029;-74
2022/05/24 02:58:14;;;;;;;1.17;0.10;;;21.70;97.50;;;;;;5042482;28;20025;-73
2022/05/24 03:00:43;;;;;;;1.88;0.17;;;21.60;97.90;;;;;;5038818;28;20033;-73
2022/05/24 03:03:10;;;;;;;0.50;0.10;;;21.40;98.40;;;;;;5049418;28;20547;-73
2022/05/24 03:05:38;;;;;;;1.40;0.10;;;21.40;98.40;;;;;;5044860;28;20467;-73
2022/05/24 03:10:51;;;;;;;0.30;0.17;;;21.80;98.30;;;;;;5034290;28;20053;-73
2022/05/24 03:16:15;;;;;;;0.13;0.10;;;22.90;97.50;;;;;;5045059;28;20107;-74
2022/05/24 03:18:43;;;;;;;0.25;0.10;;;22.90;96.80;;;;;;5045415;28;20017;-73
2022/05/24 03:21:10;;;;;;;0.17;0.08;;;22.40;97.00;;;;;;5051213;28;20036;-74
2022/05/24 03:23:38;;;;;;;0.55;0.10;;;22.10;97.40;;;;;;5048517;28;20029;-73
2022/05/24 03:26:05;;;;;;;1.48;0.10;;;22.20;97.20;;;;;;5041918;28;20041;-74
2022/05/24 03:28:33;;;;;;;1.85;0.25;;;22.40;96.90;;;;;;5050456;28;20032;-74
2022/05/24 03:31:04;;;;;;;0.10;0.00;;;22.40;97.30;;;;;;5048056;28;20394;-76
2022/05/24 03:33:32;;;;;;;0.65;0.10;;;22.40;96.90;;;;;;5036791;28;20032;-77
2022/05/24 03:36:00;;;;;;;0.00;0.00;;;22.00;96.80;;;;;;5035569;28;20041;-73
2022/05/24 03:38:28;;;;;;;0.10;0.00;;;21.50;97.50;;;;;;5043676;28;20384;-73
2022/05/24 03:40:58;;;;;;;0.28;0.10;;;21.20;98.20;;;;;;5075770;28;20037;-74
2022/05/24 03:43:26;;;;;;;0.93;0.10;;;21.00;98.60;;;;;;5047126;28;20075;-73
2022/05/24 03:46:09;;;;;;;1.08;0.20;;;21.00;98.90;;;;;;5043582;28;20040;-74
2022/05/24 03:48:37;;;;;;;0.82;0.32;;;21.00;98.60;;;;;;5053445;28;20064;-76
2022/05/24 03:51:04;;;;;;;1.10;0.22;;;21.00;98.40;;;;;;5048447;28;20029;-76
2022/05/24 03:53:33;;;;;;;0.55;0.10;;;20.90;98.60;;;;;;5053389;28;20040;-75
2022/05/24 03:56:00;;;;;;;0.20;0.10;;;20.80;98.80;;;;;;5048105;28;20041;-74
2022/05/24 03:58:29;;;;;;;0.80;0.20;;;20.90;98.60;;;;;;5035689;28;20041;-75
2022/05/24 04:00:56;;;;;;;0.95;0.10;;;20.80;98.90;;;;;;5038381;28;20133;-74
2022/05/24 04:03:24;;;;;;;2.40;0.10;;;20.80;98.80;;;;;;5038728;28;20357;-75
2022/05/24 04:05:52;;;;;;;0.30;0.10;;;20.80;99.00;;;;;;5032385;28;20510;-77
2022/05/24 04:08:26;;;;;;;1.90;0.10;;;20.70;98.90;;;;;;5033372;28;20030;-75
2022/05/24 04:11:09;;;;;;;1.48;0.13;;;20.80;98.90;;;;;;5052687;28;20407;-74
2022/05/24 04:13:38;;;;;;;0.13;0.00;;;20.90;99.00;;;;;;5048642;28;20024;-76
2022/05/24 04:16:06;;;;;;;1.88;0.50;;;21.00;98.90;;;;;;5047159;28;20040;-73
2022/05/24 04:18:34;;;;;;;0.20;0.10;;;20.90;98.90;;;;;;5052960;28;20017;-72
2022/05/24 04:21:02;;;;;;;0.15;0.10;;;20.80;99.10;;;;;;5043232;28;20039;-73
2022/05/24 04:23:29;;;;;;;3.92;0.85;;;20.60;99.10;;;;;;5033102;28;20052;-72
2022/05/24 04:25:57;;;;;;;0.30;0.20;;;20.50;99.30;;;;;;5041958;28;20113;-71
2022/05/24 04:28:24;;;;;;;3.05;0.73;;;20.40;99.40;;;;;;5044029;28;20025;-72
2022/05/24 04:30:53;;;;;;;2.13;0.25;;;20.30;99.70;;;;;;5046907;28;20118;-71
2022/05/24 04:33:20;;;;;;;1.67;0.40;;;20.30;99.90;;;;;;5032506;28;20111;-72
2022/05/24 04:35:48;;;;;;;0.25;0.10;;;20.20;99.90;;;;;;5040414;28;20036;-72
2022/05/24 04:38:15;;;;;;;0.68;0.20;;;20.20;99.90;;;;;;5032848;28;20083;-72
2022/05/24 04:43:28;;;;;;;0.13;0.10;;;20.20;99.90;;;;;;5038618;28;20032;-72
2022/05/24 04:45:56;;;;;;;2.95;0.20;;;20.30;99.90;;;;;;5046015;28;20041;-72
2022/05/24 04:48:25;;;;;;;2.75;0.13;;;20.30;99.90;;;;;;5052590;28;20077;-72
2022/05/24 04:50:56;;;;;;;1.23;0.15;;;20.40;99.90;;;;;;5046291;28;20029;-72
2022/05/24 04:53:25;;;;;;;2.85;0.40;;;20.20;99.90;;;;;;5034584;28;20021;-73
2022/05/24 04:55:53;;;;;;;0.50;0.20;;;20.10;99.90;;;;;;5039598;28;20037;-73
2022/05/24 04:58:21;;;;;;;1.90;0.20;;;20.00;99.90;;;;;;5032554;28;20104;-72
2022/05/24 05:00:49;;;;;;;2.47;0.13;;;20.00;99.90;;;;;;5034041;28;20170;-73
2022/05/24 05:03:19;;;;;;;2.25;0.20;;;19.90;99.90;;;;;;5031209;28;20072;-72
2022/05/24 05:05:48;;;;;;;3.15;0.30;;;19.90;99.90;;;;;;5029320;28;20465;-74
2022/05/24 05:08:17;;;;;;;1.02;0.22;;;19.80;99.90;;;;;;5028398;28;20454;-72
2022/05/24 05:10:44;;;;;;;1.70;0.20;;;19.80;99.90;;;;;;5033484;28;20057;-72
2022/05/24 05:13:11;;;;;;;0.75;0.20;;;19.70;99.90;;;;;;5046699;28;20055;-73
2022/05/24 05:15:39;;;;;;;0.88;0.20;;;19.50;99.90;;;;;;5033649;28;20483;-73
2022/05/24 05:18:08;;;;;;;5.10;0.30;;;19.30;99.90;;;;;;5037355;28;20410;-72
2022/05/24 05:20:39;;;;;;;0.20;0.10;;;19.30;99.90;;;;;;5050213;28;20032;-73
2022/05/24 05:23:09;;;;;;;2.28;0.40;;;19.30;99.90;;;;;;5032252;28;20036;-72
2022/05/24 05:25:37;;;;;;;0.50;0.10;;;19.30;99.90;;;;;;5031124;28;20018;-73
2022/05/24 05:28:04;;;;;;;4.20;0.73;;;19.30;99.90;;;;;;5045064;28;20429;-73
2022/05/24 05:33:17;;;;;;;0.82;0.50;;;19.20;99.90;;;;;;5051833;28;20090;-73
2022/05/24 05:35:46;;;;;;;0.40;0.10;;;19.00;99.90;;;;;;5034262;28;20044;-72
2022/05/24 05:38:14;;;;;;;1.13;0.60;;;18.80;99.90;;;;;;5047920;28;20060;-72
2022/05/24 05:40:42;;;;;;;0.93;0.75;;;18.60;99.90;;;;;;5034305;28;20029;-71
2022/05/24 05:43:10;;;;;;;0.30;0.20;;;18.50;99.90;;;;;;5038499;28;20045;-72
2022/05/24 05:45:38;;;;;;;1.45;0.85;;;18.40;99.90;;;;;;5044510;28;20422;-74
2022/05/24 05:48:06;;;;;;;1.77;1.02;;;18.20;99.90;;;;;;5031278;28;20084;-72
2022/05/24 05:50:33;;;;;;;0.70;0.13;;;18.10;99.90;;;;;;5042905;28;20601;-72
2022/05/24 05:53:04;;;;;;;0.20;0.10;;;18.10;99.90;;;;;;5038053;28;20311;-73
2022/05/24 05:55:31;;;;;;;0.88;0.25;;;18.00;99.90;;;;;;5040691;28;20052;-71
2022/05/24 05:57:59;;;;;;;0.45;0.20;;;18.00;99.90;;;;;;5048672;28;20116;-72
2022/05/24 06:00:26;;;;;;;1.08;0.20;;;17.90;99.90;;;;;;5048638;28;20033;-72
2022/05/24 06:02:54;;;;;;;1.50;0.10;;;17.80;99.90;;;;;;5032510;28;20112;-72
2022/05/24 06:05:21;;;;;;;0.55;0.10;;;17.80;99.90;;;;;;5046907;28;20033;-71
2022/05/24 06:07:48;;;;;;;0.68;0.10;;;17.70;99.90;;;;;;5048211;28;20078;-72
2022/05/24 06:10:16;;;;;;;0.30;0.10;;;17.70;99.90;;;;;;5047491;28;20025;-74
2022/05/24 06:12:43;;;;;;;1.25;0.30;;;17.70;99.90;;;;;;5049137;28;20048;-72
2022/05/24 06:15:11;;;;;;;1.75;0.40;;;17.60;99.90;;;;;;5038074;28;20072;-72
2022/05/24 06:17:52;;;;;;;1.20;0.30;;;17.60;99.90;;;;;;5034242;28;20034;-72
2022/05/24 06:20:22;;;;;;;1.98;0.77;;;17.60;99.90;;;;;;5040956;28;20060;-72
2022/05/24 06:22:52;;;;;;;1.73;0.32;;;17.50;99.90;;;;;;5049379;28;20403;-71
2022/05/24 06:25:21;;;;;;;1.55;0.22;;;17.40;99.90;;;;;;5039423;28;20381;-72
2022/05/24 06:27:50;;;;;;;0.43;0.20;;;17.30;99.90;;;;;;5030075;28;20090;-73
2022/05/24 06:30:20;;;;;;;0.50;0.20;;;17.20;99.90;;;;;;5033380;28;20036;-73
2022/05/24 06:32:51;;;;;;;0.50;0.50;;;17.10;99.90;;;;;;5049803;28;20029;-71
2022/05/24 06:35:19;;;;;;;1.55;0.28;;;17.00;99.90;;;;;;5043959;28;20565;-73
2022/05/24 06:37:48;;;;;;;2.40;0.47;;;17.00;99.90;;;;;;5050035;28;20589;-73
2022/05/24 06:40:18;;;;;;;1.55;0.20;;;17.00;99.90;;;;;;5042261;28;20040;-72
2022/05/24 06:42:46;;;;;;;0.47;0.20;;;16.90;99.90;;;;;;5036747;28;20021;-72
2022/05/24 06:45:14;;;;;;;0.25;0.25;;;16.80;99.90;;;;;;5046565;28;20033;-72
2022/05/24 06:47:42;;;;;;;2.20;0.38;;;16.70;99.90;;;;;;5049008;28;20033;-75
2022/05/24 06:50:11;;;;;;;1.25;0.30;;;16.50;99.90;;;;;;5044512;28;20310;-72
2022/05/24 06:52:38;;;;;;;1.10;0.35;;;16.50;99.90;;;;;;5035127;28;20156;-72
2022/05/24 06:55:07;;;;;;;3.80;0.30;;;16.40;99.90;;;;;;5039750;28;20392;-72
2022/05/24 06:57:35;;;;;;;1.73;0.32;;;16.30;99.90;;;;;;5050428;28;20025;-74
2022/05/24 07:03:02;;;;;;;1.70;0.50;;;16.20;99.90;;;;;;5034402;28;20036;-71
2022/05/24 07:05:30;;;;;;;2.58;0.40;;;16.10;99.90;;;;;;5037376;28;20024;-72
2022/05/24 07:08:00;;;;;;;3.97;1.00;;;16.10;99.90;;;;;;5046639;28;20072;-74
2022/05/24 07:10:30;;;;;;;4.32;0.70;;;16.00;99.90;;;;;;5038046;28;20525;-72
2022/05/24 07:13:09;;;;;;;2.25;0.70;;;16.00;99.90;;;;;;5032901;28;20033;-73
2022/05/24 07:15:37;;;;;;;4.68;1.13;;;15.90;99.90;;;;;;5033473;28;20547;-72
2022/05/24 07:18:06;;;;;;;1.67;0.93;;;15.90;99.90;;;;;;5043502;28;20480;-75
2022/05/24 07:20:36;;;;;;;3.85;1.33;;;15.80;99.90;;;;;;5049676;28;20032;-75
2022/05/24 07:23:18;;;;;;;3.10;1.25;;;15.80;99.90;;;;;;5038322;28;20361;-72
2022/05/24 07:25:47;;;;;;;2.72;1.13;;;15.70;99.90;;;;;;5039527;28;20032;-72
2022/05/24 07:28:18;;;;;;;2.75;1.40;;;15.70;99.90;;;;;;5043897;28;20029;-72
2022/05/24 07:30:49;;;;;;;3.88;1.60;;;15.60;99.90;;;;;;5045954;28;20543;-72
2022/05/24 07:33:16;;;;;;;3.65;1.90;;;15.50;99.90;;;;;;5032750;28;20040;-72
2022/05/24 07:35:44;;;;;;;3.08;1.25;;;15.50;99.90;;;;;;5042146;28;20037;-73
2022/05/24 07:38:13;;;;;;;4.07;2.22;;;15.50;99.90;;;;;;5041039;28;20021;-72
2022/05/24 07:46:14;;;;;;;6.10;2.17;;;15.30;99.90;;;;;;5042911;28;20487;-72
2022/05/24 07:48:42;;;;;;;5.43;3.08;;;15.30;99.90;;;;;;5049612;28;20127;-72
2022/05/24 07:51:09;;;;;;;3.75;1.80;;;15.20;99.90;;;;;;5049291;28;20475;-72
2022/05/24 07:53:37;;;;;;;4.95;2.53;;;15.20;99.90;;;;;;5032811;28;20021;-73
2022/05/24 07:56:05;;;;;;;8.23;4.15;;;15.10;99.90;;;;;;5045055;28;20037;-72
2022/05/24 07:58:32;;;;;;;6.63;3.35;;;15.10;99.90;;;;;;5040801;28;20029;-72
2022/05/24 08:01:04;;;;;;;7.45;3.40;;;15.00;99.90;;;;;;5044404;28;20040;-73
2022/05/24 08:03:31;;;;;;;7.82;3.17;;;14.90;99.90;;;;;;5039798;28;20090;-72
2022/05/24 08:05:59;;;;;;;6.28;3.15;;;14.90;99.90;;;;;;5044096;28;20048;-73
2022/05/24 08:08:27;;;;;;;5.07;3.65;;;14.80;99.90;;;;;;5032973;28;20042;-73
2022/05/24 08:10:54;;;;;;;6.53;3.63;;;14.70;99.90;;;;;;5036911;28;20041;-73
2022/05/24 08:13:22;;;;;;;11.00;6.70;;;14.60;99.90;;;;;;5050680;28;20051;-72
2022/05/24 08:15:54;;;;;;;10.75;7.05;;;14.60;99.90;;;;;;5039211;28;20044;-73
2022/05/24 08:18:23;;;;;;;13.68;8.00;;;14.60;99.90;;;;;;5033387;28;20036;-73
2022/05/24 08:20:52;;;;;;;7.65;5.95;;;14.50;99.90;;;;;;5032359;28;20500;-73
2022/05/24 08:23:21;;;;;;;9.02;4.78;;;14.60;99.90;;;;;;5028491;28;20442;-73
2022/05/24 08:25:50;;;;;;;6.60;3.72;;;14.60;99.90;;;;;;5030574;28;20029;-74
2022/05/24 08:28:18;;;;;;;6.50;3.42;;;14.50;99.90;;;;;;5029848;28;20107;-73
2022/05/24 08:30:46;;;;;;;10.07;5.35;;;14.60;99.90;;;;;;5032343;28;22469;-73
2022/05/24 08:33:16;;;;;;;11.27;4.07;;;14.50;99.90;;;;;;5033636;28;20031;-73
2022/05/24 08:35:45;;;;;;;9.90;4.80;;;14.60;99.90;;;;;;5031904;28;20028;-73
2022/05/24 08:38:13;;;;;;;8.20;4.10;;;14.50;99.90;;;;;;5033059;28;20384;-73
2022/05/24 08:40:43;;;;;;;6.20;3.95;;;14.40;99.90;;;;;;5031799;28;20018;-72
2022/05/24 08:43:50;;;;;;;6.75;3.00;;;14.40;99.90;;;;;;5031588;28;20504;-73
2022/05/24 08:49:17;;;;;;;6.63;3.47;;;14.30;99.90;;;;;;5048059;28;20424;-73
2022/05/24 08:52:01;;;;;;;9.38;2.60;;;14.40;99.90;;;;;;5046777;28;20124;-73
2022/05/24 08:54:45;;;;;;;7.03;2.90;;;14.40;99.90;;;;;;5048137;28;20051;-72
2022/05/24 08:57:26;;;;;;;7.15;2.47;;;14.40;99.90;;;;;;5048040;28;20037;-72
2022/05/24 09:00:10;;;;;;;3.58;2.10;;;14.40;99.90;;;;;;5048398;28;20491;-72
2022/05/24 09:02:45;;;;;;;3.60;2.58;;;14.40;99.90;;;;;;5033270;28;20517;-73
2022/05/24 09:05:18;;;;;;;5.60;2.88;;;14.40;99.90;;;;;;5037110;28;20353;-73
2022/05/24 09:08:13;;;;;;;4.57;2.58;;;14.40;99.90;;;;;;5032653;28;20187;-71
2022/05/24 09:10:55;;;;;;;6.97;4.68;;;14.40;99.90;;;;;;5045657;28;20383;-72
2022/05/24 09:13:55;;;;;;;13.25;5.60;;;14.30;99.90;;;;;;5042166;28;20032;-75
2022/05/24 09:16:36;;;;;;;9.50;5.68;;;14.20;99.90;;;;;;5045547;28;20063;-73
2022/05/24 09:19:23;;;;;;;7.40;5.05;;;14.10;99.90;;;;;;5041561;28;20061;-73
2022/05/24 09:21:53;;;;;;;10.93;5.13;;;14.00;99.90;;;;;;5038349;28;20111;-73
2022/05/24 09:24:44;;;;;;;12.35;7.75;;;13.90;99.90;;;;;;5030943;28;20489;-73
2022/05/24 09:27:18;;;;;;;21.75;13.30;;;13.90;99.90;;;;;;5046061;28;20758;-73
2022/05/24 09:29:55;;;;;;;18.65;9.70;;;13.80;99.90;;;;;;5044818;28;20112;-74
2022/05/24 09:32:34;;;;;;;7.57;5.65;;;13.70;99.90;;;;;;5031077;28;20134;-73
2022/05/24 09:35:12;;;;;;;4.68;4.13;;;13.80;99.90;;;;;;5034197;28;20037;-73
2022/05/24 09:37:42;;;;;;;7.63;3.78;;;13.80;99.90;;;;;;5034785;28;20025;-74
2022/05/24 09:40:22;;;;;;;14.00;8.15;;;13.80;99.90;;;;;;5045185;28;20032;-72
2022/05/24 09:42:50;;;;;;;11.82;9.07;;;13.80;99.90;;;;;;5033247;28;20021;-75
2022/05/24 09:45:24;;;;;;;13.85;10.00;;;13.80;99.90;;;;;;5039092;28;20510;-72
2022/05/24 09:47:58;;;;;;;13.63;11.13;;;13.70;99.90;;;;;;5032469;28;20061;-72
2022/05/24 09:50:36;;;;;;;18.08;12.55;;;13.70;99.90;;;;;;5038092;28;20100;-76
2022/05/24 09:53:08;;;;;;;18.42;10.43;;;13.60;99.90;;;;;;5037099;28;20029;-72
2022/05/24 09:55:54;;;;;;;9.20;5.97;;;13.50;99.90;;;;;;5033504;28;20067;-72
2022/05/24 09:58:46;;;;;;;;;;;13.50;99.90;;;;;;5026848;28;20037;-73
2022/05/24 10:01:30;;;;;;;5.03;2.90;;;13.40;99.90;;;;;;5047097;28;19939;-73
2022/05/24 10:04:12;;;;;;;2.78;1.33;;;13.40;99.90;;;;;;5040848;28;20047;-73
2022/05/24 10:06:42;;;;;;;2.85;1.40;;;13.50;99.90;;;;;;5033791;28;20040;-71
2022/05/24 10:09:47;;;;;;;2.70;1.15;;;13.50;99.90;;;;;;5031473;28;20515;-72
2022/05/24 10:12:17;;;;;;;2.53;1.00;;;13.50;99.90;;;;;;5036234;28;20120;-73
2022/05/24 10:15:07;;;;;;;4.88;1.20;;;13.60;99.90;;;;;;5035442;28;20499;-72
2022/05/24 10:18:11;;;;;;;1.90;1.23;;;13.50;99.90;;;;;;5029813;28;20032;-72
2022/05/24 10:21:00;;;;;;;0.95;0.70;;;13.50;99.90;;;;;;5042322;28;20104;-73
2022/05/24 10:23:48;;;;;;;2.50;0.95;;;13.50;99.90;;;;;;5040236;28;20480;-73
2022/05/24 10:26:26;;;;;;;2.22;0.88;;;13.50;99.90;;;;;;5042399;28;20432;-72
2022/05/24 10:28:59;;;;;;;2.95;1.00;;;13.50;99.90;;;;;;5029702;28;20195;-72
2022/05/24 10:31:52;;;;;;;1.45;0.90;;;13.50;99.90;;;;;;5036520;28;20029;-72
2022/05/24 10:40:44;;;;;;;2.78;0.68;;;13.40;99.90;;;;;;5041877;28;20106;-72
2022/05/24 10:43:29;;;;;;;1.60;1.02;;;13.40;99.90;;;;;;5044242;28;20060;-79
2022/05/24 10:46:02;;;;;;;3.30;1.60;;;13.30;99.90;;;;;;5042109;28;20025;-80
2022/05/24 10:48:55;;;;;;;3.03;2.03;;;13.30;99.90;;;;;;5030804;28;20050;-76
2022/05/24 10:51:33;;;;;;;3.03;1.70;;;13.20;99.90;;;;;;5028692;28;20086;-77
2022/05/24 10:54:11;;;;;;;3.15;1.95;;;13.10;99.90;;;;;;5030422;28;20463;-79
2022/05/24 10:56:45;;;;;;;3.42;2.05;;;13.00;99.90;;;;;;5041684;28;20095;-75
2022/05/24 10:59:16;;;;;;;1.65;1.10;;;13.00;99.90;;;;;;5030416;28;20033;-76
2022/05/24 11:01:51;;;;;;;1.80;0.63;;;13.10;99.90;;;;;;5043951;28;20037;-76
2022/05/24 11:04:34;;;;;;;0.70;0.45;;;13.10;99.90;;;;;;5048642;28;20029;-75
2022/05/24 11:07:11;;;;;;;1.23;0.32;;;13.20;99.90;;;;;;5046805;28;20581;-76
2022/05/24 11:09:49;;;;;;;0.50;0.30;;;13.30;99.90;;;;;;5029833;28;20037;-74
2022/05/24 11:12:22;;;;;;;1.23;0.80;;;13.30;99.90;;;;;;5033873;28;20075;-75
2022/05/24 11:14:54;;;;;;;5.07;2.58;;;13.30;99.90;;;;;;5038513;28;20489;-74
2022/05/24 11:17:22;;;;;;;5.60;2.90;;;13.30;99.90;;;;;;5046320;28;20822;-75
2022/05/24 11:19:55;;;;;;;4.43;1.80;;;13.30;99.90;;;;;;5052117;28;20032;-75
2022/05/24 11:22:41;;;;;;;1.80;1.27;;;13.30;99.90;;;;;;5053478;28;20043;-75
2022/05/24 11:25:21;;;;;;;1.30;0.70;;;13.30;99.90;;;;;;5042062;28;20425;-75
2022/05/24 11:28:03;;;;;;;2.05;0.98;;;13.40;99.90;;;;;;5040840;28;20475;-74
2022/05/24 11:30:30;;;;;;;1.00;0.93;;;13.40;99.90;;;;;;5036439;28;20107;-75
2022/05/24 11:33:15;;;;;;;1.00;0.50;;;13.30;99.90;;;;;;5033721;28;20472;-75
2022/05/24 11:35:46;;;;;;;1.92;0.57;;;13.30;99.90;;;;;;5033552;28;20072;-76
2022/05/24 11:38:18;;;;;;;0.93;0.47;;;13.20;99.90;;;;;;5043565;28;20033;-76
2022/05/24 11:41:07;;;;;;;2.90;0.40;;;13.10;99.90;;;;;;5045616;28;20025;-75
2022/05/24 11:44:00;;;;;;;1.00;0.50;;;13.10;99.90;;;;;;5039710;28;20025;-76
2022/05/24 11:46:39;;;;;;;1.02;0.43;;;13.00;99.90;;;;;;5044734;28;20487;-76
2022/05/24 11:49:29;;;;;;;3.28;0.63;;;13.00;99.90;;;;;;5034920;28;20076;-77
2022/05/24 11:52:23;;;;;;;2.63;0.60;;;13.00;99.90;;;;;;5039769;28;20060;-77
2022/05/24 11:54:50;;;;;;;2.75;0.77;;;13.00;99.90;;;;;;5033239;28;20025;-76
2022/05/24 11:57:19;;;;;;;1.67;0.90;;;13.00;99.90;;;;;;5041358;28;20040;-76
2022/05/24 11:59:46;;;;;;;2.08;0.68;;;13.00;99.90;;;;;;5040226;28;20053;-75
2022/05/24 12:02:26;;;;;;;1.35;0.80;;;13.00;99.90;;;;;;5032659;28;20068;-75
2022/05/24 12:07:55;;;;;;;1.88;0.70;;;13.00;99.90;;;;;;5042086;28;20391;-76
2022/05/24 12:10:24;;;;;;;1.63;0.90;;;13.00;99.90;;;;;;5037771;28;20044;-76
2022/05/24 12:13:03;;;;;;;1.65;1.08;;;13.00;99.90;;;;;;5045194;28;20442;-74
2022/05/24 12:15:30;;;;;;;0.95;0.70;;;12.90;99.90;;;;;;5038921;28;20051;-75
2022/05/24 12:18:00;;;;;;;2.08;1.23;;;12.90;99.90;;;;;;5039978;28;20025;-77
2022/05/24 12:20:34;;;;;;;2.03;1.33;;;12.90;99.90;;;;;;5049206;28;20540;-75
2022/05/24 12:23:16;;;;;;;2.00;1.10;;;12.90;99.90;;;;;;5032961;28;20447;-77
2022/05/24 12:26:02;;;;;;;2.75;1.23;;;12.90;99.90;;;;;;5037965;28;20566;-77
2022/05/24 12:28:48;;;;;;;2.08;1.85;;;12.80;99.90;;;;;;5031419;28;20021;-77
2022/05/24 12:31:18;;;;;;;1.90;0.95;;;12.80;99.90;;;;;;5032502;28;20506;-76
2022/05/24 12:33:56;;;;;;;1.92;1.33;;;12.80;99.90;;;;;;5032522;28;20064;-77
2022/05/24 12:36:29;;;;;;;3.90;1.92;;;12.80;99.90;;;;;;5032393;28;20041;-74
2022/05/24 12:39:27;;;;;;;3.15;1.40;;;12.70;99.90;;;;;;5036949;28;20025;-76
2022/05/24 12:42:00;;;;;;;1.42;0.98;;;12.80;99.90;;;;;;5035396;28;20038;-76
2022/05/24 12:44:53;;;;;;;3.90;1.20;;;12.80;99.90;;;;;;5035150;28;20048;-74
2022/05/24 12:47:23;;;;;;;1.88;1.33;;;12.70;99.90;;;;;;5034538;28;20072;-76
2022/05/24 12:49:50;;;;;;;1.92;1.30;;;12.70;99.90;;;;;;5042563;28;20033;-78
2022/05/24 12:52:24;;;;;;;2.30;1.27;;;12.70;99.90;;;;;;5045277;28;20029;-78
2022/05/24 12:54:54;;;;;;;1.83;1.52;;;12.70;99.90;;;;;;5046945;28;20041;-77
2022/05/24 12:57:29;;;;;;;2.67;1.90;;;12.70;99.90;;;;;;5033959;28;20053;-77
2022/05/24 13:00:00;;;;;;;2.73;1.50;;;12.70;99.90;;;;;;5040556;28;20017;-78
2022/05/24 13:02:56;;;;;;;2.85;1.52;;;12.70;99.90;;;;;;5033073;28;20683;-74
2022/05/24 13:05:28;;;;;;;2.95;1.83;;;12.70;99.90;;;;;;5032498;28;20079;-80
2022/05/24 13:07:57;;;;;;;2.13;1.60;;;12.60;99.90;;;;;;5031696;28;20087;-78
2022/05/24 13:10:34;;;;;;;2.97;1.52;;;12.50;99.90;;;;;;5031543;28;20027;-75
2022/05/24 13:13:03;;;;;;;2.88;2.10;;;12.50;99.90;;;;;;5035040;28;20060;-74
2022/05/24 13:15:53;;;;;;;5.57;2.20;;;12.50;99.90;;;;;;5033703;28;20060;-76
2022/05/24 13:18:32;;;;;;;2.75;2.10;;;12.40;99.90;;;;;;5037019;28;20498;-74
2022/05/24 13:21:02;;;;;;;5.45;2.38;;;12.40;99.90;;;;;;5041039;28;20026;-76
2022/05/24 13:23:33;;;;;;;2.85;1.80;;;12.40;99.90;;;;;;5046236;28;20043;-76
2022/05/24 13:26:03;;;;;;;3.25;2.15;;;12.40;99.90;;;;;;5047404;28;20039;-77
2022/05/24 13:28:51;;;;;;;2.03;1.77;;;12.30;99.90;;;;;;5042104;28;20080;-79
2022/05/24 13:34:28;;;;;;;4.47;2.20;;;12.30;99.90;;;;;;5037206;28;20490;-77
2022/05/24 13:37:01;;;;;;;4.65;1.40;;;12.30;99.90;;;;;;5042199;28;20042;-86
2022/05/24 13:39:56;;;;;;;2.03;1.33;;;12.30;99.90;;;;;;5034671;28;20430;-80
2022/05/24 13:42:31;;;;;;;3.38;1.65;;;12.30;99.90;;;;;;5033191;28;20037;-82
2022/05/24 13:45:15;;;;;;;1.75;1.38;;;12.20;99.90;;;;;;5039478;28;20082;-76
2022/05/24 13:47:56;;;;;;;2.13;1.88;;;12.20;99.90;;;;;;5033788;28;20037;-77
2022/05/24 13:50:44;;;;;;;2.90;2.15;;;12.20;99.90;;;;;;5040569;28;20033;-77
2022/05/24 13:53:37;;;;;;;3.88;1.52;;;12.20;99.90;;;;;;5041818;28;20492;-74
2022/05/24 13:56:07;;;;;;;2.13;1.63;;;12.20;99.90;;;;;;5076027;28;20066;-75